General Aviation Weather

Text Reports

Enter one or more of the following location identifiers separated by a space:

Zip Code, Four-Character ICAO or Three-Character IATA airport codes.

METAR - Aviation Routine Weather Report
KMTO - Mattoon, Illinois
Updated at 3:53 AM GMT on July 26, 2014 (10:53 PM CDT):
METAR KMTO 260353Z AUTO 14006KT 10SM BKN065 OVC080 19/16 A2997 RMK AO2 SLP145 T01890161
TAF - Terminal Area Forecast
KMTO - Mattoon, Illinois
Updated at 3:53 AM GMT on July 26, 2014 (10:53 PM CDT):
No TAF is currently available for this location.
Decoded:
No decoded TAF is available.
PIREP - Pilot Weather Report
KMTO - Mattoon, Illinois
Updated at 3:53 AM GMT on July 26, 2014 (10:53 PM CDT):
No PIREP is currently available for this location.
AIRMET - Airmens Meteorological Information
KMTO - Mattoon, Illinois
Updated at 3:53 AM GMT on July 26, 2014 (10:53 PM CDT):
No AIRMET is currently available for this location.
SIGMET - Significant Meteorological Information
KMTO - Mattoon, Illinois
Updated at 3:53 AM GMT on July 26, 2014 (10:53 PM CDT):
No SIGMET is currently available for this location.
NOTAM - Notice to Airmen
KMTO - Mattoon, Illinois
Updated at 3:53 AM GMT on July 26, 2014 (10:53 PM CDT):
No NOTAM is currently available for this location.
Forecast Area
KMTO - Mattoon, Illinois
Updated at 3:53 AM GMT on July 26, 2014 (10:53 PM CDT):
No NOTAM is currently available for this location.
Aviation Weather Maps